Time;durP1;ratioP1;P1;durP2;ratioP2;P2;SDS_P1;SDS_P2;PMS_P1;PMS_P2;Temp;Humidity;BMP_temperature;BMP_pressure;BME280_temperature;BME280_humidity;BME280_pressure;Samples;Min_cycle;Max_cycle;Signal;HPM_P1;HPM_P2
2022/11/26 07:01:59;;;;;;;;;60.75;47.75;;;;;;;;4877987;24;1161204;-58
2022/11/26 07:04:25;;;;;;;;;57.00;46.25;;;;;;;;4716704;30;45417;-58
2022/11/26 07:06:50;;;;;;;;;57.50;44.00;;;;;;;;4712396;30;45597;-61
2022/11/26 07:09:15;;;;;;;;;56.25;46.00;;;;;;;;4714705;30;45401;-60
2022/11/26 07:11:41;;;;;;;;;55.75;44.50;;;;;;;;4715947;30;45636;-60
2022/11/26 07:14:06;;;;;;;;;55.50;42.50;;;;;;;;4713363;30;45460;-60
2022/11/26 07:16:32;;;;;;;;;58.75;46.50;;;;;;;;4706055;30;46939;-60
2022/11/26 07:18:57;;;;;;;;;59.75;45.75;;;;;;;;4710035;30;45567;-60
2022/11/26 07:21:23;;;;;;;;;58.00;44.25;;;;;;;;4719310;30;45328;-61
2022/11/26 07:23:49;;;;;;;;;63.75;47.75;;;;;;;;4717695;30;45344;-61
2022/11/26 07:26:15;;;;;;;;;55.50;46.00;;;;;;;;4710941;30;45337;-60
2022/11/26 07:28:40;;;;;;;;;65.00;48.75;;;;;;;;4717282;30;45776;-60
2022/11/26 07:31:10;;;;;;;;;64.00;49.00;;;;;;;;4702899;30;45311;-61
2022/11/26 07:33:35;;;;;;;;;61.00;49.50;;;;;;;;4714032;30;45509;-59
2022/11/26 07:36:01;;;;;;;;;63.25;49.00;;;;;;;;4702774;30;46058;-58
2022/11/26 07:38:27;;;;;;;;;62.25;49.25;;;;;;;;4702540;30;45357;-59
2022/11/26 07:40:52;;;;;;;;;58.25;45.50;;;;;;;;4711402;30;45458;-59
2022/11/26 07:43:18;;;;;;;;;67.50;52.75;;;;;;;;4704301;30;45321;-59
2022/11/26 07:45:43;;;;;;;;;64.75;49.50;;;;;;;;4713517;30;45407;-59
2022/11/26 07:48:08;;;;;;;;;62.75;49.25;;;;;;;;4709308;30;45372;-59
2022/11/26 07:50:33;;;;;;;;;60.75;49.00;;;;;;;;4703132;30;45466;-59
2022/11/26 07:52:58;;;;;;;;;62.75;48.00;;;;;;;;4716121;30;45560;-59
2022/11/26 07:55:24;;;;;;;;;66.25;48.25;;;;;;;;4718658;30;46392;-59
2022/11/26 07:57:49;;;;;;;;;52.00;41.50;;;;;;;;4707964;30;45485;-59
2022/11/26 08:00:14;;;;;;;;;54.50;46.00;;;;;;;;4703557;30;45503;-60
2022/11/26 08:02:39;;;;;;;;;60.75;46.50;;;;;;;;4710795;30;45700;-59
2022/11/26 08:05:05;;;;;;;;;57.00;44.50;;;;;;;;4708748;30;46221;-59
2022/11/26 08:07:30;;;;;;;;;58.50;47.00;;;;;;;;4708053;30;45496;-60
2022/11/26 08:09:55;;;;;;;;;56.75;46.75;;;;;;;;4707149;30;46753;-59
2022/11/26 08:12:20;;;;;;;;;57.75;45.00;;;;;;;;4702651;30;46729;-60
2022/11/26 08:14:46;;;;;;;;;54.50;43.75;;;;;;;;4701038;30;45570;-60
2022/11/26 08:17:11;;;;;;;;;54.75;42.25;;;;;;;;4703720;30;46680;-60
2022/11/26 08:19:36;;;;;;;;;58.50;46.50;;;;;;;;4705403;30;45372;-60
2022/11/26 08:22:01;;;;;;;;;52.00;41.50;;;;;;;;4706429;30;45502;-60
2022/11/26 08:24:26;;;;;;;;;52.75;43.25;;;;;;;;4704745;30;46223;-59
2022/11/26 08:26:52;;;;;;;;;49.75;40.00;;;;;;;;4703691;30;46721;-60
2022/11/26 08:29:17;;;;;;;;;60.00;46.25;;;;;;;;4706146;30;45480;-60
2022/11/26 08:31:42;;;;;;;;;54.75;45.00;;;;;;;;4702658;30;45543;-60
2022/11/26 08:34:10;;;;;;;;;54.50;45.25;;;;;;;;4706282;30;45305;-60
2022/11/26 08:36:35;;;;;;;;;55.00;44.25;;;;;;;;4708542;30;45229;-59
2022/11/26 08:39:00;;;;;;;;;54.00;41.00;;;;;;;;4703100;30;45661;-60
2022/11/26 08:41:26;;;;;;;;;44.00;36.75;;;;;;;;4702213;30;45337;-59
2022/11/26 08:43:51;;;;;;;;;44.50;35.75;;;;;;;;4707295;30;46104;-60
2022/11/26 08:46:16;;;;;;;;;34.00;31.00;;;;;;;;4706057;30;45413;-62
2022/11/26 08:48:42;;;;;;;;;26.67;20.67;;;;;;;;4708277;30;45482;-59
2022/11/26 08:51:09;;;;;;;;;29.33;23.67;;;;;;;;4701985;30;45399;-59
2022/11/26 08:53:35;;;;;;;;;22.67;21.00;;;;;;;;4702759;30;45502;-60
2022/11/26 08:56:01;;;;;;;;;18.33;17.67;;;;;;;;4711701;30;45627;-59
2022/11/26 08:58:26;;;;;;;;;19.33;14.67;;;;;;;;4705851;30;45494;-60
2022/11/26 09:00:51;;;;;;;;;18.00;17.33;;;;;;;;4710027;30;45513;-59
2022/11/26 09:03:16;;;;;;;;;20.33;17.00;;;;;;;;4705606;30;46214;-59
2022/11/26 09:05:42;;;;;;;;;17.00;12.67;;;;;;;;4705604;30;45487;-59
2022/11/26 09:08:07;;;;;;;;;20.67;17.00;;;;;;;;4713172;30;45488;-59
2022/11/26 09:10:32;;;;;;;;;12.67;12.00;;;;;;;;4707019;30;45373;-59
2022/11/26 09:12:57;;;;;;;;;15.00;14.33;;;;;;;;4706157;30;46106;-59
2022/11/26 09:15:22;;;;;;;;;14.67;14.33;;;;;;;;4707779;30;45480;-59
2022/11/26 09:17:47;;;;;;;;;18.67;16.00;;;;;;;;4706200;30;46594;-59
2022/11/26 09:20:13;;;;;;;;;15.67;13.33;;;;;;;;4709513;30;45392;-59
2022/11/26 09:22:38;;;;;;;;;16.67;15.67;;;;;;;;4711659;30;46844;-58
2022/11/26 09:25:03;;;;;;;;;19.00;17.00;;;;;;;;4711779;30;45210;-58
2022/11/26 09:27:28;;;;;;;;;21.67;20.00;;;;;;;;4711423;30;45885;-59
2022/11/26 09:29:53;;;;;;;;;17.33;16.67;;;;;;;;4717441;30;45241;-59
2022/11/26 09:32:19;;;;;;;;;17.00;13.00;;;;;;;;4711189;30;46295;-59
2022/11/26 09:34:44;;;;;;;;;17.33;16.67;;;;;;;;4709330;30;45367;-59
2022/11/26 09:37:09;;;;;;;;;17.33;17.33;;;;;;;;4707616;30;45911;-59
2022/11/26 09:39:34;;;;;;;;;22.00;17.00;;;;;;;;4703827;30;45541;-60
2022/11/26 09:42:05;;;;;;;;;18.33;14.00;;;;;;;;4703728;30;46291;-59
2022/11/26 09:44:56;;;;;;;;;23.33;19.00;;;;;;;;4703549;30;45433;-60
2022/11/26 09:47:26;;;;;;;;;16.33;12.00;;;;;;;;4676903;30;45278;-59
2022/11/26 09:49:57;;;;;;;;;18.00;15.67;;;;;;;;4704703;30;45531;-59
2022/11/26 09:52:24;;;;;;;;;18.67;14.67;;;;;;;;4704025;30;45309;-59
2022/11/26 09:54:53;;;;;;;;;16.00;16.00;;;;;;;;4715233;30;45451;-59
2022/11/26 09:57:22;;;;;;;;;15.00;14.33;;;;;;;;4711550;30;45443;-59
2022/11/26 09:59:48;;;;;;;;;19.67;16.33;;;;;;;;4708418;30;45344;-60
2022/11/26 10:02:13;;;;;;;;;22.33;18.00;;;;;;;;4715763;30;45963;-61
2022/11/26 10:04:39;;;;;;;;;19.67;18.33;;;;;;;;4714344;30;45714;-61
2022/11/26 10:07:04;;;;;;;;;21.67;18.33;;;;;;;;4707476;30;45538;-60
2022/11/26 10:09:29;;;;;;;;;17.67;17.00;;;;;;;;4704551;30;46428;-60
2022/11/26 10:11:55;;;;;;;;;22.67;19.00;;;;;;;;4706101;30;45365;-61
2022/11/26 10:14:47;;;;;;;;;22.00;20.33;;;;;;;;4711992;30;45364;-61
2022/11/26 10:17:31;;;;;;;;;20.00;18.00;;;;;;;;4706102;30;46514;-60
2022/11/26 10:20:14;;;;;;;;;19.67;18.00;;;;;;;;4705561;30;46380;-59
2022/11/26 10:22:39;;;;;;;;;21.00;21.00;;;;;;;;4711022;30;47341;-60
2022/11/26 10:25:13;;;;;;;;;21.67;21.00;;;;;;;;4719670;30;45373;-59
2022/11/26 10:27:38;;;;;;;;;18.00;16.00;;;;;;;;4707801;30;45496;-60
2022/11/26 10:30:16;;;;;;;;;19.00;17.67;;;;;;;;4709343;30;45413;-60
2022/11/26 10:32:42;;;;;;;;;22.67;20.00;;;;;;;;4704513;30;45427;-59
2022/11/26 10:35:34;;;;;;;;;14.00;11.33;;;;;;;;4711601;30;45420;-60
2022/11/26 10:37:59;;;;;;;;;24.00;21.00;;;;;;;;4704604;30;45652;-59
2022/11/26 10:40:26;;;;;;;;;23.00;19.33;;;;;;;;4709724;30;45432;-59
2022/11/26 10:42:52;;;;;;;;;20.33;16.33;;;;;;;;4704553;30;45480;-60
2022/11/26 10:45:19;;;;;;;;;25.33;20.33;;;;;;;;4710112;30;45384;-60
2022/11/26 10:47:44;;;;;;;;;25.67;21.33;;;;;;;;4713234;30;45472;-59
2022/11/26 10:50:09;;;;;;;;;25.33;20.67;;;;;;;;4704057;30;45400;-60
2022/11/26 10:52:37;;;;;;;;;34.50;27.25;;;;;;;;4716291;30;46477;-59
2022/11/26 10:55:08;;;;;;;;;25.67;25.67;;;;;;;;4708821;30;45415;-59
2022/11/26 10:57:37;;;;;;;;;25.33;23.33;;;;;;;;4709605;30;45513;-60
2022/11/26 11:00:02;;;;;;;;;27.00;25.67;;;;;;;;4713219;30;45303;-60
2022/11/26 11:02:33;;;;;;;;;26.67;21.33;;;;;;;;4710694;30;47480;-60
2022/11/26 11:05:01;;;;;;;;;23.00;20.00;;;;;;;;4704174;30;45521;-59
2022/11/26 11:07:37;;;;;;;;;20.67;18.33;;;;;;;;4708757;30;45360;-59
2022/11/26 11:10:08;;;;;;;;;23.33;21.33;;;;;;;;4707143;30;45439;-59
2022/11/26 11:12:38;;;;;;;;;19.67;17.00;;;;;;;;4704111;30;46866;-59
2022/11/26 11:15:19;;;;;;;;;22.00;21.33;;;;;;;;4707140;30;45342;-60
2022/11/26 11:17:45;;;;;;;;;30.00;24.00;;;;;;;;4711875;30;45670;-59
2022/11/26 11:20:16;;;;;;;;;24.00;20.00;;;;;;;;4704145;30;45492;-59
2022/11/26 11:22:42;;;;;;;;;22.67;20.67;;;;;;;;4706781;30;47066;-59
2022/11/26 11:25:21;;;;;;;;;27.00;26.33;;;;;;;;4710471;30;45600;-59
2022/11/26 11:27:47;;;;;;;;;25.00;20.67;;;;;;;;4704609;30;45297;-59
2022/11/26 11:30:23;;;;;;;;;22.33;21.33;;;;;;;;4707919;30;45371;-59
2022/11/26 11:32:49;;;;;;;;;26.00;22.00;;;;;;;;4716815;30;47141;-59
2022/11/26 11:35:21;;;;;;;;;32.00;29.00;;;;;;;;4702708;30;45368;-59
2022/11/26 11:37:47;;;;;;;;;29.00;27.00;;;;;;;;4702505;30;45503;-59
2022/11/26 11:40:14;;;;;;;;;24.33;24.33;;;;;;;;4702880;30;45286;-59
2022/11/26 11:42:39;;;;;;;;;35.67;27.67;;;;;;;;4701579;30;46258;-59
2022/11/26 11:45:14;;;;;;;;;39.00;30.33;;;;;;;;4704027;30;45347;-59
2022/11/26 11:47:43;;;;;;;;;25.00;24.33;;;;;;;;4716439;30;45307;-59
2022/11/26 11:50:34;;;;;;;;;27.67;26.00;;;;;;;;4707600;30;45523;-59
2022/11/26 11:53:09;;;;;;;;;33.33;27.67;;;;;;;;4702692;30;46315;-59
2022/11/26 11:55:49;;;;;;;;;32.33;27.33;;;;;;;;4709102;30;45449;-60
2022/11/26 11:58:37;;;;;;;;;30.00;28.67;;;;;;;;4704969;30;45370;-59
2022/11/26 12:01:21;;;;;;;;;28.00;26.33;;;;;;;;4706412;30;45460;-58
2022/11/26 12:03:49;;;;;;;;;33.33;30.00;;;;;;;;4707674;30;45323;-58
2022/11/26 12:06:38;;;;;;;;;29.67;28.33;;;;;;;;4716319;30;45354;-59
2022/11/26 12:09:09;;;;;;;;;28.33;24.67;;;;;;;;4712755;30;45591;-60
2022/11/26 12:11:46;;;;;;;;;30.67;27.00;;;;;;;;4708406;30;45481;-60
2022/11/26 12:14:16;;;;;;;;;35.00;29.67;;;;;;;;4708067;30;46279;-59
2022/11/26 12:16:43;;;;;;;;;33.00;28.33;;;;;;;;4713674;30;45525;-59
2022/11/26 12:19:15;;;;;;;;;33.33;28.67;;;;;;;;4706156;30;45297;-59
2022/11/26 12:21:53;;;;;;;;;29.00;25.00;;;;;;;;4701714;30;45367;-59
2022/11/26 12:24:25;;;;;;;;;33.00;29.67;;;;;;;;4707241;30;46413;-59
2022/11/26 12:26:50;;;;;;;;;29.33;28.00;;;;;;;;4710906;30;45384;-59
2022/11/26 12:29:20;;;;;;;;;28.50;27.25;;;;;;;;4713823;30;45631;-60
2022/11/26 12:31:50;;;;;;;;;29.33;26.67;;;;;;;;4702332;30;45274;-59
2022/11/26 12:34:23;;;;;;;;;30.67;29.00;;;;;;;;4696186;30;46425;-59
2022/11/26 12:36:56;;;;;;;;;30.67;28.67;;;;;;;;4710160;30;45347;-59
2022/11/26 12:39:34;;;;;;;;;32.00;29.33;;;;;;;;4685761;30;45440;-60
2022/11/26 12:42:06;;;;;;;;;32.00;29.00;;;;;;;;4705348;30;45600;-60
2022/11/26 12:44:42;;;;;;;;;33.33;30.00;;;;;;;;4714095;30;46136;-60
2022/11/26 12:47:23;;;;;;;;;32.33;28.33;;;;;;;;4714126;30;45441;-60
2022/11/26 12:50:04;;;;;;;;;33.67;29.33;;;;;;;;4707997;30;45369;-60
2022/11/26 12:53:04;;;;;;;;;31.00;26.67;;;;;;;;4701187;30;45364;-60
2022/11/26 12:55:34;;;;;;;;;32.00;29.33;;;;;;;;4656116;30;45365;-59
2022/11/26 12:58:11;;;;;;;;;29.67;27.67;;;;;;;;4700230;30;45445;-60
2022/11/26 13:00:36;;;;;;;;;37.33;31.00;;;;;;;;4705015;30;45318;-60
2022/11/26 13:03:03;;;;;;;;;35.00;30.00;;;;;;;;4713588;30;46524;-60
2022/11/26 13:05:37;;;;;;;;;28.33;26.00;;;;;;;;4706792;30;45600;-60
2022/11/26 13:08:17;;;;;;;;;30.67;27.00;;;;;;;;4708684;30;45412;-60
2022/11/26 13:11:00;;;;;;;;;30.67;28.00;;;;;;;;4720014;30;45478;-60
2022/11/26 13:13:37;;;;;;;;;36.00;31.33;;;;;;;;4691788;30;45419;-60
2022/11/26 13:16:11;;;;;;;;;31.67;26.00;;;;;;;;4713269;30;46258;-59
2022/11/26 13:18:39;;;;;;;;;31.33;27.67;;;;;;;;4694095;30;45612;-60
2022/11/26 13:21:31;;;;;;;;;28.00;23.00;;;;;;;;4710047;30;47779;-60
2022/11/26 13:24:10;;;;;;;;;32.00;23.33;;;;;;;;4706520;30;45364;-60
2022/11/26 13:26:53;;;;;;;;;30.33;26.00;;;;;;;;4705661;30;45329;-60
2022/11/26 13:29:21;;;;;;;;;25.00;24.00;;;;;;;;4703351;30;45296;-60
2022/11/26 13:31:58;;;;;;;;;27.67;23.67;;;;;;;;4704128;30;45400;-60
2022/11/26 13:34:23;;;;;;;;;22.00;21.33;;;;;;;;4707355;30;45313;-59
2022/11/26 13:36:48;;;;;;;;;24.75;22.50;;;;;;;;4711001;30;45236;-60
2022/11/26 13:39:32;;;;;;;;;22.67;19.33;;;;;;;;4713938;30;45528;-60
2022/11/26 13:42:06;;;;;;;;;25.00;21.67;;;;;;;;4713262;30;45411;-61
2022/11/26 13:44:37;;;;;;;;;22.00;17.33;;;;;;;;4708927;30;45452;-61
2022/11/26 13:47:02;;;;;;;;;22.33;21.00;;;;;;;;4715755;30;46818;-61
2022/11/26 13:49:27;;;;;;;;;28.00;23.75;;;;;;;;4708400;30;45372;-61
2022/11/26 13:51:58;;;;;;;;;30.00;23.00;;;;;;;;4715558;30;45503;-61
2022/11/26 13:54:27;;;;;;;;;34.67;25.00;;;;;;;;4713504;30;45534;-61
2022/11/26 13:56:59;;;;;;;;;30.00;23.00;;;;;;;;4711120;30;46108;-61
2022/11/26 13:59:24;;;;;;;;;20.67;17.00;;;;;;;;4715803;30;45450;-61
2022/11/26 14:01:49;;;;;;;;;26.00;24.67;;;;;;;;4713497;30;45303;-61
2022/11/26 14:04:21;;;;;;;;;27.00;24.33;;;;;;;;4706677;30;45326;-61
2022/11/26 14:07:04;;;;;;;;;26.33;24.00;;;;;;;;4706851;30;46394;-61
2022/11/26 14:09:41;;;;;;;;;22.67;22.00;;;;;;;;4708169;30;45359;-61
2022/11/26 14:12:07;;;;;;;;;26.00;23.00;;;;;;;;4709742;30;45673;-61
2022/11/26 14:14:33;;;;;;;;;26.67;24.33;;;;;;;;4712708;30;45581;-61
2022/11/26 14:17:01;;;;;;;;;20.67;19.67;;;;;;;;4714609;30;46177;-61
2022/11/26 14:19:39;;;;;;;;;23.00;20.67;;;;;;;;4709341;30;45577;-61
2022/11/26 14:22:24;;;;;;;;;23.00;21.67;;;;;;;;4719597;30;45549;-61
2022/11/26 14:24:49;;;;;;;;;23.33;20.67;;;;;;;;4718826;30;45489;-61
2022/11/26 14:27:23;;;;;;;;;23.67;22.33;;;;;;;;4715643;30;45876;-61
2022/11/26 14:29:52;;;;;;;;;19.33;19.33;;;;;;;;4720055;30;45489;-61
2022/11/26 14:32:19;;;;;;;;;17.00;17.00;;;;;;;;4719097;30;45391;-61
2022/11/26 14:34:49;;;;;;;;;22.67;18.33;;;;;;;;4704381;30;45224;-61
2022/11/26 14:37:16;;;;;;;;;17.33;15.00;;;;;;;;4712065;30;46349;-61
2022/11/26 14:39:41;;;;;;;;;22.00;20.00;;;;;;;;4708243;30;45541;-61
2022/11/26 14:42:13;;;;;;;;;22.67;18.67;;;;;;;;4695556;30;45404;-61
2022/11/26 14:44:38;;;;;;;;;22.33;18.67;;;;;;;;4696660;30;45617;-61
2022/11/26 14:47:13;;;;;;;;;24.00;19.67;;;;;;;;4706915;30;46205;-61
2022/11/26 14:49:41;;;;;;;;;20.00;20.00;;;;;;;;4709793;30;45455;-61
2022/11/26 14:52:16;;;;;;;;;21.00;19.67;;;;;;;;4694402;30;45555;-61
2022/11/26 14:54:41;;;;;;;;;19.33;16.67;;;;;;;;4703210;30;45458;-61
2022/11/26 14:57:11;;;;;;;;;20.33;18.00;;;;;;;;4708915;30;45863;-61
2022/11/26 14:59:52;;;;;;;;;17.00;14.67;;;;;;;;4712853;30;45530;-61
2022/11/26 15:02:21;;;;;;;;;23.33;22.00;;;;;;;;4715041;30;45376;-62
2022/11/26 15:04:55;;;;;;;;;22.67;21.67;;;;;;;;4709951;30;45342;-60
2022/11/26 15:07:24;;;;;;;;;28.00;26.00;;;;;;;;4710291;30;46048;-62
2022/11/26 15:10:00;;;;;;;;;23.33;20.67;;;;;;;;4712373;30;45423;-61
2022/11/26 15:12:25;;;;;;;;;22.33;21.33;;;;;;;;4709428;30;45578;-60
2022/11/26 15:14:54;;;;;;;;;23.33;21.00;;;;;;;;4714883;30;45395;-62
2022/11/26 15:17:21;;;;;;;;;22.33;19.00;;;;;;;;4713346;30;46264;-62
2022/11/26 15:19:50;;;;;;;;;23.33;21.67;;;;;;;;4711565;30;45348;-62
2022/11/26 15:22:34;;;;;;;;;20.33;19.67;;;;;;;;4713872;30;45472;-60
2022/11/26 15:24:59;;;;;;;;;24.33;22.00;;;;;;;;4714022;30;45421;-60
2022/11/26 15:27:25;;;;;;;;;26.67;23.00;;;;;;;;4714578;30;46411;-61
2022/11/26 15:29:50;;;;;;;;;24.67;19.00;;;;;;;;4702428;30;45429;-61
2022/11/26 15:32:23;;;;;;;;;9.00;6.33;;;;;;;;4705639;30;45521;-61
2022/11/26 15:34:49;;;;;;;;;17.00;17.00;;;;;;;;4704465;30;45891;-61
2022/11/26 15:37:14;;;;;;;;;24.67;19.67;;;;;;;;4701564;30;45417;-60
2022/11/26 15:39:40;;;;;;;;;22.67;19.00;;;;;;;;4702497;30;45556;-60
2022/11/26 15:42:19;;;;;;;;;22.33;17.00;;;;;;;;4702422;30;45446;-61
2022/11/26 15:44:47;;;;;;;;;27.00;23.33;;;;;;;;4694856;30;45301;-61
2022/11/26 15:47:17;;;;;;;;;24.33;20.67;;;;;;;;4714855;30;46446;-62
2022/11/26 15:49:48;;;;;;;;;26.00;21.67;;;;;;;;4714523;30;45336;-61
2022/11/26 15:52:14;;;;;;;;;19.33;19.00;;;;;;;;4702215;30;45329;-61
2022/11/26 15:54:41;;;;;;;;;25.67;18.00;;;;;;;;4704139;30;45661;-61
2022/11/26 15:57:09;;;;;;;;;25.67;20.67;;;;;;;;4712315;30;46135;-60
2022/11/26 15:59:40;;;;;;;;;26.00;22.33;;;;;;;;4702576;30;45392;-59
2022/11/26 16:02:15;;;;;;;;;27.67;22.67;;;;;;;;4705839;30;45541;-62
2022/11/26 16:04:40;;;;;;;;;22.67;21.67;;;;;;;;4711236;30;45855;-62
2022/11/26 16:07:08;;;;;;;;;25.33;20.67;;;;;;;;4703996;30;46219;-61
2022/11/26 16:09:33;;;;;;;;;25.33;23.33;;;;;;;;4710568;30;45382;-59
2022/11/26 16:11:59;;;;;;;;;23.00;23.00;;;;;;;;4714587;30;45162;-60
2022/11/26 16:14:27;;;;;;;;;26.67;22.67;;;;;;;;4714750;30;45311;-60
2022/11/26 16:16:52;;;;;;;;;30.33;25.00;;;;;;;;4703860;30;45700;-61
2022/11/26 16:19:21;;;;;;;;;30.33;24.33;;;;;;;;4710701;30;45493;-61
2022/11/26 16:21:50;;;;;;;;;28.00;23.00;;;;;;;;4703086;30;45470;-60
2022/11/26 16:24:28;;;;;;;;;30.00;25.00;;;;;;;;4702583;30;45266;-61
2022/11/26 16:27:02;;;;;;;;;25.67;22.33;;;;;;;;4714380;30;45399;-61
2022/11/26 16:29:28;;;;;;;;;25.67;23.67;;;;;;;;4712924;30;45635;-61
2022/11/26 16:31:53;;;;;;;;;27.33;25.67;;;;;;;;4711753;30;45502;-61
2022/11/26 16:34:19;;;;;;;;;21.33;18.00;;;;;;;;4712533;30;45628;-61
2022/11/26 16:36:44;;;;;;;;;33.33;30.00;;;;;;;;4715248;30;45941;-61
2022/11/26 16:39:10;;;;;;;;;33.67;26.33;;;;;;;;4710241;30;45449;-61
2022/11/26 16:41:35;;;;;;;;;23.67;23.33;;;;;;;;4709824;30;45388;-61
2022/11/26 16:44:01;;;;;;;;;22.00;20.00;;;;;;;;4711172;30;45410;-60
2022/11/26 16:46:26;;;;;;;;;21.33;16.67;;;;;;;;4711547;30;47131;-61
2022/11/26 16:48:52;;;;;;;;;26.00;22.67;;;;;;;;4712561;30;45389;-61
2022/11/26 16:51:17;;;;;;;;;27.67;23.33;;;;;;;;4718794;30;45544;-61
2022/11/26 16:53:43;;;;;;;;;23.33;21.67;;;;;;;;4707633;30;45485;-60
2022/11/26 16:56:16;;;;;;;;;28.67;24.33;;;;;;;;4719650;30;45954;-60
2022/11/26 16:58:42;;;;;;;;;31.00;22.67;;;;;;;;4711805;30;45389;-61
2022/11/26 17:01:07;;;;;;;;;30.33;25.33;;;;;;;;4718374;30;45405;-61
2022/11/26 17:03:32;;;;;;;;;30.33;23.00;;;;;;;;4709815;30;45526;-60
2022/11/26 17:05:59;;;;;;;;;25.67;20.33;;;;;;;;4714434;30;46106;-61
2022/11/26 17:08:25;;;;;;;;;24.00;24.00;;;;;;;;4705912;30;45431;-61
2022/11/26 17:10:51;;;;;;;;;24.00;22.00;;;;;;;;4718802;30;45420;-60
2022/11/26 17:13:17;;;;;;;;;27.33;24.00;;;;;;;;4708849;30;45231;-61
2022/11/26 17:15:42;;;;;;;;;26.67;22.33;;;;;;;;4709671;30;46914;-61
2022/11/26 17:18:17;;;;;;;;;23.67;22.67;;;;;;;;4707463;30;45396;-60
2022/11/26 17:20:43;;;;;;;;;28.00;23.33;;;;;;;;4705757;30;45461;-61
2022/11/26 17:23:08;;;;;;;;;24.67;20.67;;;;;;;;4707001;30;45325;-61
2022/11/26 17:25:33;;;;;;;;;28.33;25.00;;;;;;;;4705402;30;46056;-61
2022/11/26 17:27:58;;;;;;;;;26.33;23.33;;;;;;;;4707500;30;45327;-60
2022/11/26 17:30:23;;;;;;;;;28.33;23.67;;;;;;;;4705251;30;45399;-60
2022/11/26 17:32:49;;;;;;;;;24.33;23.67;;;;;;;;4710755;30;45675;-60
2022/11/26 17:35:14;;;;;;;;;26.00;22.33;;;;;;;;4704131;30;47006;-60
2022/11/26 17:37:40;;;;;;;;;25.67;23.33;;;;;;;;4706953;30;45483;-60
2022/11/26 17:40:16;;;;;;;;;29.67;27.00;;;;;;;;4708439;30;45463;-60
2022/11/26 17:42:41;;;;;;;;;33.33;27.00;;;;;;;;4704279;30;45877;-60
2022/11/26 17:45:07;;;;;;;;;22.67;21.00;;;;;;;;4704446;30;45371;-61
2022/11/26 17:47:32;;;;;;;;;24.67;23.00;;;;;;;;4715266;30;45479;-60
2022/11/26 17:49:57;;;;;;;;;26.00;22.67;;;;;;;;4709275;30;45618;-60
2022/11/26 17:52:22;;;;;;;;;23.00;22.00;;;;;;;;4704774;30;45277;-60
2022/11/26 17:54:48;;;;;;;;;24.00;21.33;;;;;;;;4713730;30;45269;-61
2022/11/26 17:57:14;;;;;;;;;25.00;23.67;;;;;;;;4711876;30;45648;-61
2022/11/26 17:59:39;;;;;;;;;24.67;21.00;;;;;;;;4708386;30;45479;-61
2022/11/26 18:02:05;;;;;;;;;20.00;18.33;;;;;;;;4709637;30;45725;-62
2022/11/26 18:04:30;;;;;;;;;28.00;20.00;;;;;;;;4708095;30;47246;-61
2022/11/26 18:07:05;;;;;;;;;24.67;22.67;;;;;;;;4714606;30;46647;-61
2022/11/26 18:09:31;;;;;;;;;31.67;25.67;;;;;;;;4719609;30;45257;-62
2022/11/26 18:11:56;;;;;;;;;27.33;25.00;;;;;;;;4718028;30;45301;-61
2022/11/26 18:14:22;;;;;;;;;18.67;16.33;;;;;;;;4715651;30;45966;-62
2022/11/26 18:16:48;;;;;;;;;23.00;19.67;;;;;;;;4712181;30;45488;-61
2022/11/26 18:19:15;;;;;;;;;24.67;21.67;;;;;;;;4705022;30;45365;-61
2022/11/26 18:21:40;;;;;;;;;29.00;25.67;;;;;;;;4720192;30;45556;-62
2022/11/26 18:24:06;;;;;;;;;35.00;27.00;;;;;;;;4717073;30;45393;-61
2022/11/26 18:26:31;;;;;;;;;22.33;19.00;;;;;;;;4710699;30;45637;-61
2022/11/26 18:28:57;;;;;;;;;29.00;27.33;;;;;;;;4714684;30;45985;-61
2022/11/26 18:31:22;;;;;;;;;21.67;20.33;;;;;;;;4710851;30;45408;-60
2022/11/26 18:33:47;;;;;;;;;31.67;26.67;;;;;;;;4708630;30;45230;-61
2022/11/26 18:36:13;;;;;;;;;23.00;21.00;;;;;;;;4717239;30;45386;-61
2022/11/26 18:38:38;;;;;;;;;21.67;20.67;;;;;;;;4702433;30;45521;-61
2022/11/26 18:41:05;;;;;;;;;24.33;22.00;;;;;;;;4711062;30;45688;-61
2022/11/26 18:43:31;;;;;;;;;23.00;20.00;;;;;;;;4698998;30;46758;-61
2022/11/26 18:45:56;;;;;;;;;24.33;22.33;;;;;;;;4702329;30;45537;-61
2022/11/26 18:48:21;;;;;;;;;25.33;22.33;;;;;;;;4707973;30;45415;-61
2022/11/26 18:50:56;;;;;;;;;22.00;21.33;;;;;;;;4704128;30;45276;-63
2022/11/26 18:53:21;;;;;;;;;26.67;21.00;;;;;;;;4705954;30;46802;-62
2022/11/26 18:55:46;;;;;;;;;19.00;16.00;;;;;;;;4712581;30;45656;-62
2022/11/26 18:58:13;;;;;;;;;27.00;20.33;;;;;;;;4709420;30;45514;-62
2022/11/26 19:00:38;;;;;;;;;28.67;18.33;;;;;;;;4713868;30;45706;-61
2022/11/26 19:03:03;;;;;;;;;17.33;14.00;;;;;;;;4713334;30;45775;-61
2022/11/26 19:05:28;;;;;;;;;16.00;16.00;;;;;;;;4705823;30;45619;-62
2022/11/26 19:07:53;;;;;;;;;23.00;19.67;;;;;;;;4709223;30;45384;-61
2022/11/26 19:10:18;;;;;;;;;14.33;12.00;;;;;;;;4705431;30;45499;-61
2022/11/26 19:12:44;;;;;;;;;18.00;16.33;;;;;;;;4711388;30;46312;-61
2022/11/26 19:15:09;;;;;;;;;21.33;18.67;;;;;;;;4707304;30;45523;-62
2022/11/26 19:17:34;;;;;;;;;18.00;17.33;;;;;;;;4703746;30;45458;-62
2022/11/26 19:19:59;;;;;;;;;17.33;16.00;;;;;;;;4703246;30;45416;-62
2022/11/26 19:22:24;;;;;;;;;22.00;18.00;;;;;;;;4707792;30;46206;-62
2022/11/26 19:24:50;;;;;;;;;18.00;16.67;;;;;;;;4708272;30;45377;-61
2022/11/26 19:27:15;;;;;;;;;22.67;22.67;;;;;;;;4712101;30;45677;-61
2022/11/26 19:29:40;;;;;;;;;19.00;18.00;;;;;;;;4715528;30;45845;-61
2022/11/26 19:32:05;;;;;;;;;19.33;19.33;;;;;;;;4711580;30;45467;-62
2022/11/26 19:34:30;;;;;;;;;19.00;17.33;;;;;;;;4704635;30;45516;-62
2022/11/26 19:36:57;;;;;;;;;23.33;20.67;;;;;;;;4708523;30;45475;-62
2022/11/26 19:39:22;;;;;;;;;22.33;21.67;;;;;;;;4710062;30;45766;-62
2022/11/26 19:41:47;;;;;;;;;22.67;18.00;;;;;;;;4706466;30;45767;-62
2022/11/26 19:44:13;;;;;;;;;17.33;16.00;;;;;;;;4713411;30;46413;-62
2022/11/26 19:46:39;;;;;;;;;27.67;21.00;;;;;;;;4711776;30;46698;-62
2022/11/26 19:49:04;;;;;;;;;21.00;18.33;;;;;;;;4704033;30;45530;-62
2022/11/26 19:51:30;;;;;;;;;25.33;18.67;;;;;;;;4706287;30;46513;-62
2022/11/26 19:53:55;;;;;;;;;23.67;21.67;;;;;;;;4702051;30;45381;-63
2022/11/26 19:56:25;;;;;;;;;30.67;24.67;;;;;;;;4707680;30;45546;-62
2022/11/26 19:58:52;;;;;;;;;19.00;18.00;;;;;;;;4709670;30;45546;-63
2022/11/26 20:01:18;;;;;;;;;29.33;24.67;;;;;;;;4714120;30;47057;-62
2022/11/26 20:03:43;;;;;;;;;35.33;27.33;;;;;;;;4691339;30;45315;-62
2022/11/26 20:06:13;;;;;;;;;28.67;24.67;;;;;;;;4705219;30;45307;-62
2022/11/26 20:08:38;;;;;;;;;27.33;26.33;;;;;;;;4705735;30;45504;-62
2022/11/26 20:11:05;;;;;;;;;26.33;24.00;;;;;;;;4707258;30;45303;-62
2022/11/26 20:13:31;;;;;;;;;22.33;21.33;;;;;;;;4705848;30;45971;-62
2022/11/26 20:15:56;;;;;;;;;23.67;23.67;;;;;;;;4690723;30;45575;-63
2022/11/26 20:18:21;;;;;;;;;34.33;30.33;;;;;;;;4710137;30;45795;-62
2022/11/26 20:20:57;;;;;;;;;23.67;20.67;;;;;;;;4706355;30;45975;-62
2022/11/26 20:23:22;;;;;;;;;20.67;18.00;;;;;;;;4707658;30;45388;-62
2022/11/26 20:25:47;;;;;;;;;27.67;23.33;;;;;;;;4709686;30;45551;-62
2022/11/26 20:28:12;;;;;;;;;18.67;18.00;;;;;;;;4714263;30;45453;-61
2022/11/26 20:30:38;;;;;;;;;23.33;18.33;;;;;;;;4684024;30;47563;-63
2022/11/26 20:33:03;;;;;;;;;20.67;20.00;;;;;;;;4702162;30;45638;-62
2022/11/26 20:35:28;;;;;;;;;24.33;19.67;;;;;;;;4703453;30;46106;-62
2022/11/26 20:37:53;;;;;;;;;18.67;16.33;;;;;;;;4702165;30;45447;-62
2022/11/26 20:40:18;;;;;;;;;23.67;20.00;;;;;;;;4703676;30;46191;-62
2022/11/26 20:42:45;;;;;;;;;17.33;16.00;;;;;;;;4706425;30;45560;-62
2022/11/26 20:45:11;;;;;;;;;25.67;18.33;;;;;;;;4707742;30;45554;-62
2022/11/26 20:47:36;;;;;;;;;20.33;16.67;;;;;;;;4708591;30;45436;-63
2022/11/26 20:50:01;;;;;;;;;24.33;19.00;;;;;;;;4694553;30;47373;-62
2022/11/26 20:52:26;;;;;;;;;25.33;20.33;;;;;;;;4707306;30;45307;-62
2022/11/26 20:54:51;;;;;;;;;25.67;21.33;;;;;;;;4701298;30;45671;-63
2022/11/26 20:57:17;;;;;;;;;19.67;17.00;;;;;;;;4705377;30;45507;-62
2022/11/26 20:59:43;;;;;;;;;27.00;23.00;;;;;;;;4704078;30;46457;-62
2022/11/26 21:02:09;;;;;;;;;29.67;24.67;;;;;;;;4707856;30;45646;-63
2022/11/26 21:04:34;;;;;;;;;27.00;23.00;;;;;;;;4708420;30;45801;-62
2022/11/26 21:06:59;;;;;;;;;24.00;20.33;;;;;;;;4703017;30;45506;-62
2022/11/26 21:09:24;;;;;;;;;24.33;22.00;;;;;;;;4706493;30;45293;-62
2022/11/26 21:11:49;;;;;;;;;24.33;20.33;;;;;;;;4704748;30;45509;-62
2022/11/26 21:14:15;;;;;;;;;24.00;19.00;;;;;;;;4706538;30;45363;-62
2022/11/26 21:16:40;;;;;;;;;19.00;15.67;;;;;;;;4715982;30;45535;-62
2022/11/26 21:19:06;;;;;;;;;24.00;20.67;;;;;;;;4710298;30;46156;-62
2022/11/26 21:21:31;;;;;;;;;21.33;18.33;;;;;;;;4713820;30;46595;-63
2022/11/26 21:23:56;;;;;;;;;21.67;19.67;;;;;;;;4715374;30;45296;-62